createdAt,value
2022-11-16T00:00:41.841Z,9.20
2022-11-16T00:06:04.350Z,9.15
2022-11-16T00:11:24.862Z,9.15
2022-11-16T00:16:45.672Z,9.12
2022-11-16T00:22:06.078Z,9.11
2022-11-16T00:27:26.991Z,9.08
2022-11-16T00:32:47.610Z,9.06
2022-11-16T00:38:08.429Z,9.03
2022-11-16T00:43:29.253Z,9.06
2022-11-16T00:48:49.867Z,9.02
2022-11-16T00:54:10.186Z,8.96
2022-11-16T00:59:30.905Z,8.90
2022-11-16T01:04:52.891Z,8.90
2022-11-16T01:10:17.018Z,8.89
2022-11-16T01:15:37.814Z,8.85
2022-11-16T01:20:58.399Z,8.86
2022-11-16T01:26:18.968Z,8.82
2022-11-16T01:31:40.312Z,8.82
2022-11-16T01:37:01.032Z,8.83
2022-11-16T01:42:27.965Z,8.83
2022-11-16T01:47:53.965Z,8.79
2022-11-16T01:53:19.304Z,8.79
2022-11-16T01:58:45.562Z,8.80
2022-11-16T02:04:14.830Z,8.80
2022-11-16T02:10:04.816Z,8.78
2022-11-16T02:15:38.579Z,8.82
2022-11-16T02:21:44.981Z,8.83
2022-11-16T02:27:29.841Z,8.80
2022-11-16T02:32:56.327Z,8.77
2022-11-16T02:38:25.783Z,8.74
2022-11-16T02:43:52.533Z,8.77
2022-11-16T02:49:19.788Z,8.74
2022-11-16T02:54:40.478Z,8.72
2022-11-16T03:00:02.638Z,8.71
2022-11-16T03:05:38.971Z,8.69
2022-11-16T03:11:26.475Z,8.69
2022-11-16T03:16:55.622Z,8.67
2022-11-16T03:22:45.127Z,8.70
2022-11-16T03:28:29.436Z,8.74
2022-11-16T03:33:58.222Z,8.76
2022-11-16T03:39:25.752Z,8.84
2022-11-16T03:44:49.260Z,8.73
2022-11-16T03:50:10.149Z,8.74
2022-11-16T03:55:34.767Z,8.84
2022-11-16T04:01:00.335Z,8.82
2022-11-16T04:06:41.481Z,8.84
2022-11-16T04:12:21.043Z,8.81
2022-11-16T04:18:01.432Z,8.81
2022-11-16T04:23:42.600Z,8.78
2022-11-16T04:29:03.137Z,8.79
2022-11-16T04:34:42.999Z,8.77
2022-11-16T04:40:05.166Z,8.77
2022-11-16T04:45:45.957Z,8.78
2022-11-16T04:51:07.831Z,8.77
2022-11-16T04:56:29.143Z,8.74
2022-11-16T05:02:08.483Z,8.72
2022-11-16T05:07:35.805Z,8.70
2022-11-16T05:13:03.286Z,8.72
2022-11-16T05:18:24.100Z,8.71
2022-11-16T05:24:03.695Z,8.72
2022-11-16T05:29:25.524Z,8.77
2022-11-16T05:34:46.510Z,8.72
2022-11-16T05:40:09.636Z,8.72
2022-11-16T05:45:36.897Z,8.69
2022-11-16T05:50:59.545Z,8.68
2022-11-16T05:56:22.422Z,8.68
2022-11-16T06:01:43.832Z,8.66
2022-11-16T06:07:04.867Z,8.64
2022-11-16T06:12:29.537Z,8.69
2022-11-16T06:17:50.527Z,8.71
2022-11-16T06:23:11.292Z,8.88
2022-11-16T06:28:33.166Z,8.84
2022-11-16T06:33:54.070Z,8.88
2022-11-16T06:39:19.175Z,8.92
2022-11-16T06:44:40.272Z,8.92
2022-11-16T06:50:03.953Z,8.84
2022-11-16T06:55:24.865Z,8.77
2022-11-16T07:00:46.178Z,8.73
2022-11-16T07:06:10.634Z,8.69
2022-11-16T07:11:34.710Z,8.67
2022-11-16T07:16:59.802Z,8.66
2022-11-16T07:22:22.079Z,8.62
2022-11-16T07:27:44.609Z,8.59
2022-11-16T07:33:05.558Z,8.59
2022-11-16T07:38:48.894Z,8.60
2022-11-16T07:44:12.247Z,8.60
2022-11-16T07:49:35.807Z,8.56
2022-11-16T07:55:09.424Z,8.55
2022-11-16T08:00:29.822Z,8.59
2022-11-16T08:06:03.769Z,8.57
2022-11-16T08:11:24.803Z,8.57
2022-11-16T08:16:47.175Z,8.57
2022-11-16T08:22:09.065Z,8.56
2022-11-16T08:27:32.149Z,8.56
2022-11-16T08:32:53.282Z,8.65
2022-11-16T08:38:14.719Z,8.57
2022-11-16T08:43:35.916Z,8.54
2022-11-16T08:48:57.860Z,8.55
2022-11-16T08:54:18.920Z,8.56
2022-11-16T08:59:39.846Z,8.70
2022-11-16T09:05:05.756Z,8.76
2022-11-16T09:10:26.578Z,8.74
2022-11-16T09:15:47.187Z,8.70
2022-11-16T09:21:08.246Z,8.66
2022-11-16T09:26:29.842Z,8.78
2022-11-16T09:31:50.238Z,8.83
2022-11-16T09:37:11.135Z,8.85
2022-11-16T09:42:52.220Z,8.77
2022-11-16T09:48:14.675Z,8.80
2022-11-16T09:53:38.356Z,8.82
2022-11-16T09:59:15.031Z,8.78
2022-11-16T10:04:56.727Z,8.79
2022-11-16T10:10:34.818Z,8.66
2022-11-16T10:15:58.275Z,8.62
2022-11-16T10:21:27.963Z,8.57
2022-11-16T10:27:19.161Z,8.53
2022-11-16T10:33:02.145Z,8.57
2022-11-16T10:38:33.424Z,8.56
2022-11-16T10:43:57.855Z,8.53
2022-11-16T10:49:27.114Z,8.49
2022-11-16T10:54:47.732Z,8.36
2022-11-16T11:00:12.893Z,8.33
2022-11-16T11:05:36.205Z,8.35
2022-11-16T11:11:24.400Z,8.33
2022-11-16T11:16:45.117Z,8.29
2022-11-16T11:22:05.645Z,8.23
2022-11-16T11:27:33.730Z,8.23
2022-11-16T11:32:54.530Z,8.20
2022-11-16T11:38:16.096Z,8.14
2022-11-16T11:43:37.532Z,8.13
2022-11-16T11:49:08.746Z,8.14
2022-11-16T11:54:34.731Z,8.15
2022-11-16T11:59:55.636Z,8.19
2022-11-16T12:05:44.391Z,8.12
2022-11-16T12:11:36.737Z,8.14
2022-11-16T12:17:07.134Z,8.05
2022-11-16T12:22:51.792Z,8.13
2022-11-16T12:28:31.180Z,8.12
2022-11-16T12:34:07.444Z,8.12
2022-11-16T12:39:35.066Z,8.12
2022-11-16T12:45:18.433Z,8.11
2022-11-16T12:51:04.147Z,8.12
2022-11-16T12:56:33.465Z,8.12
2022-11-16T13:02:03.363Z,8.14
2022-11-16T13:07:43.829Z,8.10
2022-11-16T13:18:54.603Z,8.04
2022-11-16T13:24:29.667Z,8.04
2022-11-16T13:29:56.080Z,8.08
2022-11-16T13:35:18.402Z,7.98
2022-11-16T13:40:40.828Z,7.97
2022-11-16T13:46:01.251Z,7.94
2022-11-16T13:51:23.103Z,7.89
2022-11-16T13:56:48.929Z,7.86
2022-11-16T14:02:31.608Z,7.86
2022-11-16T14:07:52.289Z,7.85
2022-11-16T14:13:36.719Z,7.83
2022-11-16T14:19:02.850Z,7.80
2022-11-16T14:24:33.857Z,7.81
2022-11-16T14:30:16.054Z,7.77
2022-11-16T14:35:39.804Z,7.77
2022-11-16T14:41:03.402Z,7.75
2022-11-16T14:46:29.687Z,7.70
2022-11-16T14:51:55.042Z,7.68
2022-11-16T14:57:20.923Z,7.66
2022-11-16T15:02:43.451Z,7.63
2022-11-16T15:08:17.003Z,7.58
2022-11-16T15:13:38.000Z,7.59
2022-11-16T15:19:00.706Z,7.58
2022-11-16T15:24:30.355Z,7.56
2022-11-16T15:29:52.080Z,7.57
2022-11-16T15:35:19.049Z,7.53
2022-11-16T15:40:40.486Z,7.55
2022-11-16T15:46:02.180Z,7.55
2022-11-16T15:51:23.299Z,7.54
2022-11-16T15:56:43.836Z,7.55
2022-11-16T16:02:05.000Z,7.54
2022-11-16T16:07:45.092Z,7.48
2022-11-16T16:13:25.530Z,7.50
2022-11-16T16:18:46.197Z,7.48
2022-11-16T16:24:09.415Z,7.52
2022-11-16T16:29:29.754Z,7.51
2022-11-16T16:34:51.028Z,7.56
2022-11-16T16:40:11.503Z,7.54
2022-11-16T16:45:38.810Z,7.48
2022-11-16T16:50:59.487Z,7.46
2022-11-16T16:56:19.983Z,7.36
2022-11-16T17:01:41.073Z,7.34
2022-11-16T17:07:01.899Z,7.35
2022-11-16T17:12:22.505Z,7.35
2022-11-16T17:17:43.277Z,7.27
2022-11-16T17:23:04.175Z,7.23
2022-11-16T17:28:24.792Z,7.15
2022-11-16T17:33:45.356Z,7.15
2022-11-16T17:39:06.382Z,7.16
2022-11-16T17:44:27.116Z,7.13
2022-11-16T17:49:47.817Z,7.11
2022-11-16T17:55:08.688Z,7.07
2022-11-16T18:00:29.051Z,7.05
2022-11-16T18:05:50.749Z,7.03
2022-11-16T18:11:20.713Z,6.97
2022-11-16T18:16:43.352Z,6.96
2022-11-16T18:22:04.290Z,6.93
2022-11-16T18:27:24.934Z,6.94
2022-11-16T18:32:45.869Z,6.92
2022-11-16T18:38:08.135Z,6.86
2022-11-16T18:43:29.426Z,6.85
2022-11-16T18:48:50.586Z,6.81
2022-11-16T18:54:11.646Z,6.80
2022-11-16T18:59:32.295Z,6.78
2022-11-16T19:04:53.396Z,6.75
2022-11-16T19:10:14.697Z,6.73
2022-11-16T19:15:35.984Z,6.75
2022-11-16T19:21:11.523Z,6.71
2022-11-16T19:26:32.855Z,6.67
2022-11-16T19:37:42.900Z,6.65
2022-11-16T19:43:03.523Z,6.71
2022-11-16T19:48:24.231Z,6.68
2022-11-16T19:53:44.972Z,6.69
2022-11-16T19:59:05.694Z,6.71
2022-11-16T20:04:29.152Z,6.74
2022-11-16T20:09:53.326Z,6.82
2022-11-16T20:15:13.971Z,6.83
2022-11-16T20:20:34.638Z,6.81
2022-11-16T20:25:55.207Z,6.79
2022-11-16T20:31:17.810Z,6.76
2022-11-16T20:36:38.665Z,6.74
2022-11-16T20:41:59.493Z,6.78
2022-11-16T20:47:19.897Z,6.74
2022-11-16T20:52:43.174Z,6.76
2022-11-16T20:58:06.677Z,6.77
2022-11-16T21:03:28.079Z,6.72
2022-11-16T21:08:48.634Z,6.66
2022-11-16T21:14:18.756Z,6.70
2022-11-16T21:19:39.350Z,6.65
2022-11-16T21:25:00.711Z,6.58
2022-11-16T21:30:21.128Z,6.57
2022-11-16T21:35:41.563Z,6.51
2022-11-16T21:41:02.375Z,6.48
2022-11-16T21:46:25.095Z,6.43
2022-11-16T21:51:45.656Z,6.34
2022-11-16T21:57:06.304Z,6.29
2022-11-16T22:02:27.031Z,6.25
2022-11-16T22:07:47.666Z,6.19
2022-11-16T22:13:08.482Z,6.14
2022-11-16T22:18:32.794Z,6.14
2022-11-16T22:23:53.399Z,6.13
2022-11-16T22:29:13.702Z,6.04
2022-11-16T22:34:34.282Z,5.97
2022-11-16T22:39:55.128Z,5.98
2022-11-16T22:45:15.836Z,5.97
2022-11-16T22:50:36.441Z,5.92
2022-11-16T22:56:03.482Z,5.79
2022-11-16T23:01:24.440Z,5.72
2022-11-16T23:06:45.249Z,5.72
2022-11-16T23:12:27.908Z,5.68
2022-11-16T23:17:48.422Z,5.60
2022-11-16T23:23:36.268Z,5.53
2022-11-16T23:29:08.903Z,5.42
2022-11-16T23:34:29.558Z,5.24
2022-11-16T23:39:50.075Z,5.12
2022-11-16T23:45:10.879Z,5.02
2022-11-16T23:50:31.624Z,4.92
2022-11-16T23:55:51.889Z,4.86
